createdAt,value
2022-09-15T00:00:49.705Z,44.65
2022-09-15T00:03:19.087Z,33.28
2022-09-15T00:05:46.899Z,36.20
2022-09-15T00:08:14.733Z,39.53
2022-09-15T00:10:48.819Z,32.33
2022-09-15T00:13:16.547Z,37.35
2022-09-15T00:15:44.135Z,43.35
2022-09-15T00:18:12.145Z,38.55
2022-09-15T00:20:43.176Z,38.47
2022-09-15T00:23:12.008Z,43.00
2022-09-15T00:25:44.200Z,46.33
2022-09-15T00:28:11.644Z,47.67
2022-09-15T00:30:42.373Z,41.85
2022-09-15T00:33:10.063Z,38.75
2022-09-15T00:35:39.739Z,34.30
2022-09-15T00:38:10.274Z,32.65
2022-09-15T00:40:44.999Z,34.38
2022-09-15T00:43:14.218Z,33.60
2022-09-15T00:45:42.085Z,29.55
2022-09-15T00:48:13.423Z,32.50
2022-09-15T00:50:44.017Z,35.72
2022-09-15T00:53:15.140Z,35.78
2022-09-15T00:55:47.313Z,37.95
2022-09-15T00:58:19.821Z,30.95
2022-09-15T01:00:53.161Z,32.63
2022-09-15T01:03:20.689Z,29.58
2022-09-15T01:05:53.720Z,28.73
2022-09-15T01:08:30.274Z,30.20
2022-09-15T01:10:58.520Z,27.15
2022-09-15T01:13:26.799Z,31.48
2022-09-15T01:16:03.681Z,32.58
2022-09-15T01:18:40.898Z,40.63
2022-09-15T01:21:22.913Z,35.22
2022-09-15T01:24:35.563Z,28.55
2022-09-15T01:27:40.383Z,32.10
2022-09-15T01:30:09.561Z,26.83
2022-09-15T01:33:06.582Z,32.42
2022-09-15T01:35:45.562Z,34.15
2022-09-15T01:38:21.799Z,36.20
2022-09-15T01:40:53.866Z,37.22
2022-09-15T01:43:24.746Z,43.85
2022-09-15T01:45:54.174Z,54.55
2022-09-15T01:48:25.335Z,49.35
2022-09-15T01:50:56.856Z,58.97
2022-09-15T01:53:25.458Z,56.50
2022-09-15T01:55:57.328Z,51.60
2022-09-15T01:58:24.830Z,59.97
2022-09-15T02:00:59.605Z,60.53
2022-09-15T02:03:33.626Z,56.03
2022-09-15T02:06:05.036Z,55.95
2022-09-15T02:08:39.084Z,59.97
2022-09-15T02:11:15.398Z,56.53
2022-09-15T02:13:48.804Z,58.83
2022-09-15T02:16:21.948Z,51.67
2022-09-15T02:19:12.231Z,63.58
2022-09-15T02:21:53.898Z,61.72
2022-09-15T02:24:27.890Z,65.55
2022-09-15T02:26:56.089Z,58.30
2022-09-15T02:29:27.194Z,50.30
2022-09-15T02:32:03.719Z,52.92
2022-09-15T02:34:36.865Z,51.00
2022-09-15T02:37:05.997Z,53.47
2022-09-15T02:39:37.286Z,45.60
2022-09-15T02:42:05.167Z,41.95
2022-09-15T02:44:32.997Z,37.95
2022-09-15T02:47:02.535Z,45.97
2022-09-15T02:49:30.036Z,44.83
2022-09-15T02:51:57.488Z,42.13
2022-09-15T02:54:25.005Z,47.58
2022-09-15T02:56:52.427Z,56.05
2022-09-15T02:59:19.853Z,49.42
2022-09-15T03:01:47.361Z,43.95
2022-09-15T03:04:16.204Z,40.97
2022-09-15T03:06:43.868Z,40.67
2022-09-15T03:09:12.465Z,35.00
2022-09-15T03:11:39.879Z,35.08
2022-09-15T03:14:08.158Z,45.35
2022-09-15T03:16:36.773Z,39.83
2022-09-15T03:19:05.632Z,41.72
2022-09-15T03:21:34.769Z,38.05
2022-09-15T03:24:02.608Z,38.97
2022-09-15T03:26:30.992Z,31.67
2022-09-15T03:28:58.413Z,34.08
2022-09-15T03:31:25.883Z,34.58
2022-09-15T03:33:55.960Z,30.27
2022-09-15T03:36:23.402Z,35.28
2022-09-15T03:38:52.627Z,40.22
2022-09-15T03:41:20.166Z,38.13
2022-09-15T03:43:47.627Z,34.78
2022-09-15T03:46:15.170Z,33.17
2022-09-15T03:48:42.943Z,38.13
2022-09-15T03:51:11.419Z,36.28
2022-09-15T03:53:40.633Z,32.40
2022-09-15T03:56:11.930Z,33.17
2022-09-15T03:58:39.546Z,35.08
2022-09-15T04:01:07.062Z,31.65
2022-09-15T04:03:37.474Z,31.77
2022-09-15T04:06:08.204Z,40.17
2022-09-15T04:08:35.631Z,37.40
2022-09-15T04:11:05.670Z,42.28
2022-09-15T04:13:35.107Z,36.90
2022-09-15T04:16:04.253Z,37.63
2022-09-15T04:18:33.084Z,36.65
2022-09-15T04:21:01.573Z,44.65
2022-09-15T04:23:29.331Z,38.78
2022-09-15T04:25:57.652Z,41.22
2022-09-15T04:28:25.895Z,39.40
2022-09-15T04:30:55.336Z,44.05
2022-09-15T04:33:23.033Z,51.08
2022-09-15T04:35:50.451Z,57.80
2022-09-15T04:38:17.880Z,66.20
2022-09-15T04:40:45.353Z,68.97
2022-09-15T04:43:12.787Z,70.78
2022-09-15T04:45:40.893Z,72.35
2022-09-15T04:48:09.727Z,73.53
2022-09-15T04:50:37.170Z,77.78
2022-09-15T04:53:04.650Z,78.25
2022-09-15T04:55:32.974Z,73.57
2022-09-15T04:58:00.487Z,75.25
2022-09-15T05:00:27.920Z,74.80
2022-09-15T05:02:55.421Z,70.97
2022-09-15T05:05:25.101Z,71.00
2022-09-15T05:07:52.991Z,76.63
2022-09-15T05:10:21.145Z,58.80
2022-09-15T05:12:48.591Z,69.70
2022-09-15T05:15:16.255Z,76.10
2022-09-15T05:17:43.693Z,70.00
2022-09-15T05:20:11.148Z,80.07
2022-09-15T05:22:41.994Z,71.13
2022-09-15T05:25:10.148Z,73.00
2022-09-15T05:27:39.216Z,90.88
2022-09-15T05:30:34.961Z,80.82
2022-09-15T05:32:56.156Z,77.63
2022-09-15T05:35:24.470Z,76.57
2022-09-15T05:37:53.244Z,68.55
2022-09-15T05:40:22.122Z,59.67
2022-09-15T05:42:49.619Z,43.55
2022-09-15T05:45:17.232Z,43.42
2022-09-15T05:47:44.687Z,42.72
2022-09-15T05:50:12.224Z,48.92
2022-09-15T05:52:40.091Z,43.83
2022-09-15T05:55:10.004Z,44.97
2022-09-15T05:57:37.445Z,35.45
2022-09-15T06:00:05.898Z,50.20
2022-09-15T06:02:33.536Z,44.75
2022-09-15T06:05:01.056Z,47.80
2022-09-15T06:07:28.499Z,53.50
2022-09-15T06:09:56.156Z,53.75
2022-09-15T06:12:25.037Z,48.80
2022-09-15T06:14:53.116Z,49.38
2022-09-15T06:17:20.781Z,48.25
2022-09-15T06:19:48.216Z,44.88
2022-09-15T06:22:15.901Z,46.15
2022-09-15T06:24:43.345Z,49.53
2022-09-15T06:27:10.790Z,47.55
2022-09-15T06:29:39.554Z,51.47
2022-09-15T06:32:07.132Z,49.83
2022-09-15T06:34:34.623Z,54.83
2022-09-15T06:37:02.072Z,49.25
2022-09-15T06:39:29.544Z,51.92
2022-09-15T06:42:02.724Z,53.38
2022-09-15T06:44:31.629Z,47.72
2022-09-15T06:47:00.411Z,55.97
2022-09-15T06:49:28.842Z,48.88
2022-09-15T06:51:56.403Z,48.65
2022-09-15T06:54:23.969Z,47.85
2022-09-15T06:56:51.491Z,43.38
2022-09-15T06:59:18.985Z,42.67
2022-09-15T07:01:46.550Z,46.22
2022-09-15T07:04:15.471Z,47.72
2022-09-15T07:06:42.900Z,51.28
2022-09-15T07:09:11.915Z,50.42
2022-09-15T07:11:39.376Z,56.00
2022-09-15T07:14:07.409Z,58.10
2022-09-15T07:16:34.982Z,61.13
2022-09-15T07:19:03.701Z,62.03
2022-09-15T07:21:32.663Z,49.22
2022-09-15T07:24:03.881Z,48.58
2022-09-15T07:26:34.747Z,53.45
2022-09-15T07:29:03.805Z,54.20
2022-09-15T07:31:33.285Z,52.47
2022-09-15T07:34:02.157Z,54.63
2022-09-15T07:36:29.910Z,46.90
2022-09-15T07:38:58.890Z,57.17
2022-09-15T07:41:28.611Z,50.97
2022-09-15T07:43:57.707Z,55.20
2022-09-15T07:46:26.894Z,58.75
2022-09-15T07:48:56.242Z,52.70
2022-09-15T07:51:23.976Z,46.67
2022-09-15T07:53:52.563Z,79.20
2022-09-15T07:56:22.317Z,50.92
2022-09-15T07:58:50.885Z,46.78
2022-09-15T08:01:19.646Z,44.97
2022-09-15T08:03:49.421Z,44.05
2022-09-15T08:06:18.036Z,43.97
2022-09-15T08:08:45.519Z,41.05
2022-09-15T08:11:18.855Z,43.03
2022-09-15T08:13:49.320Z,42.33
2022-09-15T08:16:20.110Z,41.15
2022-09-15T08:18:48.121Z,39.75
2022-09-15T08:21:17.444Z,38.28
2022-09-15T08:23:45.479Z,39.50
2022-09-15T08:26:14.574Z,36.28
2022-09-15T08:28:42.906Z,39.60
2022-09-15T08:31:13.742Z,38.15
2022-09-15T08:33:45.456Z,35.53
2022-09-15T08:36:13.860Z,28.60
2022-09-15T08:38:42.848Z,30.05
2022-09-15T08:41:15.401Z,37.53
2022-09-15T08:43:47.461Z,34.15
2022-09-15T08:46:22.707Z,36.28
2022-09-15T08:49:03.121Z,39.40
2022-09-15T08:51:37.032Z,47.85
2022-09-15T08:54:12.233Z,42.60
2022-09-15T08:56:42.269Z,52.97
2022-09-15T08:59:13.315Z,63.22
2022-09-15T09:01:55.212Z,59.38
2022-09-15T09:04:36.660Z,54.53
2022-09-15T09:07:19.480Z,63.60
2022-09-15T09:09:53.557Z,53.55
2022-09-15T09:12:33.380Z,52.28
2022-09-15T09:15:15.041Z,28.67
2022-09-15T09:18:05.148Z,48.92
2022-09-15T09:20:42.241Z,41.15
2022-09-15T09:23:15.316Z,39.92
2022-09-15T09:25:44.410Z,41.83
2022-09-15T09:28:24.663Z,21.23
2022-09-15T09:30:52.371Z,34.78
2022-09-15T09:33:30.326Z,45.22
2022-09-15T09:36:02.163Z,47.88
2022-09-15T09:38:33.281Z,45.35
2022-09-15T09:41:02.582Z,35.72
2022-09-15T09:43:31.527Z,48.13
2022-09-15T09:45:59.639Z,48.60
2022-09-15T09:48:30.423Z,52.72
2022-09-15T09:50:57.944Z,53.25
2022-09-15T09:53:30.899Z,42.55
2022-09-15T09:56:17.420Z,44.35
2022-09-15T09:58:46.018Z,47.90
2022-09-15T10:01:15.649Z,49.40
2022-09-15T10:03:45.228Z,67.38
2022-09-15T10:06:15.644Z,56.95
2022-09-15T10:08:54.959Z,54.35
2022-09-15T10:11:23.241Z,54.42
2022-09-15T10:13:53.429Z,46.05
2022-09-15T10:16:22.421Z,43.28
2022-09-15T10:18:54.391Z,32.42
2022-09-15T10:21:25.377Z,35.67
2022-09-15T10:23:53.076Z,28.77
2022-09-15T10:26:23.617Z,31.23
2022-09-15T10:29:12.223Z,26.55
2022-09-15T10:31:40.721Z,30.20
2022-09-15T10:34:31.472Z,35.47
2022-09-15T10:37:14.916Z,37.53
2022-09-15T10:39:52.565Z,41.58
2022-09-15T10:42:46.016Z,41.45
2022-09-15T10:45:19.806Z,38.13
2022-09-15T10:48:03.172Z,33.75
2022-09-15T10:50:41.228Z,34.13
2022-09-15T10:53:17.730Z,27.02
2022-09-15T10:55:56.062Z,31.70
2022-09-15T10:58:45.788Z,44.55
2022-09-15T11:01:45.535Z,33.63
2022-09-15T11:04:31.245Z,26.27
2022-09-15T11:07:06.449Z,37.38
2022-09-15T11:09:37.491Z,29.52
2022-09-15T11:12:17.727Z,23.60
2022-09-15T11:14:55.960Z,39.53
2022-09-15T11:17:36.341Z,39.70
2022-09-15T11:20:24.472Z,30.33
2022-09-15T11:22:59.863Z,26.58
2022-09-15T11:25:31.394Z,35.33
2022-09-15T11:28:04.482Z,33.83
2022-09-15T11:30:36.863Z,35.58
2022-09-15T11:33:10.116Z,41.55
2022-09-15T11:35:45.805Z,50.13
2022-09-15T11:38:24.190Z,25.67
2022-09-15T11:40:57.892Z,41.17
2022-09-15T11:43:33.413Z,35.78
2022-09-15T11:46:07.155Z,46.72
2022-09-15T11:48:40.958Z,41.08
2022-09-15T11:51:09.183Z,36.60
2022-09-15T11:53:42.013Z,53.60
2022-09-15T11:56:22.351Z,23.83
2022-09-15T11:59:06.233Z,13.20
2022-09-15T12:01:40.937Z,34.13
2022-09-15T12:04:13.837Z,17.27
2022-09-15T12:06:47.267Z,19.45
2022-09-15T12:09:18.510Z,36.85
2022-09-15T12:11:48.508Z,34.50
2022-09-15T12:14:20.107Z,32.47
2022-09-15T12:16:47.835Z,31.70
2022-09-15T12:19:23.995Z,34.65
2022-09-15T12:21:58.819Z,33.78
2022-09-15T12:24:37.243Z,22.98
2022-09-15T12:27:05.453Z,31.70
2022-09-15T12:29:41.900Z,21.00
2022-09-15T12:32:20.064Z,32.13
2022-09-15T12:34:59.134Z,37.17
2022-09-15T12:37:30.583Z,35.10
2022-09-15T12:39:59.450Z,35.38
2022-09-15T12:42:31.200Z,22.58
2022-09-15T12:45:01.191Z,34.78
2022-09-15T12:47:34.984Z,36.72
2022-09-15T12:50:09.788Z,39.38
2022-09-15T12:52:45.752Z,33.72
2022-09-15T12:55:21.839Z,25.45
2022-09-15T12:57:53.608Z,35.83
2022-09-15T13:00:33.630Z,23.42
2022-09-15T13:03:02.440Z,22.77
2022-09-15T13:05:53.492Z,25.67
2022-09-15T13:08:46.636Z,25.42
2022-09-15T13:11:18.567Z,33.28
2022-09-15T13:13:50.679Z,31.83
2022-09-15T13:16:25.451Z,35.25
2022-09-15T13:19:05.302Z,42.88
2022-09-15T13:21:35.779Z,49.55
2022-09-15T13:24:08.031Z,41.30
2022-09-15T13:26:38.044Z,39.55
2022-09-15T13:29:07.306Z,45.53
2022-09-15T13:31:44.901Z,48.42
2022-09-15T13:40:42.916Z,29.10
2022-09-15T13:43:40.844Z,30.98
2022-09-15T13:46:20.766Z,25.85
2022-09-15T13:48:58.805Z,35.95
2022-09-15T13:51:29.020Z,31.92
2022-09-15T13:54:00.133Z,32.42
2022-09-15T13:56:31.011Z,30.90
2022-09-15T13:59:08.083Z,25.65
2022-09-15T14:01:40.205Z,24.90
2022-09-15T14:04:12.724Z,39.75
2022-09-15T14:06:43.122Z,26.02
2022-09-15T14:09:15.477Z,22.65
2022-09-15T14:11:44.343Z,23.23
2022-09-15T14:14:32.031Z,28.83
2022-09-15T14:16:59.558Z,24.88
2022-09-15T14:19:33.610Z,25.13
2022-09-15T14:22:02.317Z,26.42
2022-09-15T14:24:31.763Z,39.58
2022-09-15T14:27:03.332Z,47.90
2022-09-15T14:29:32.252Z,42.63
2022-09-15T14:32:03.699Z,39.83
2022-09-15T14:34:35.925Z,37.13
2022-09-15T14:37:08.141Z,28.08
2022-09-15T14:39:37.535Z,54.13
2022-09-15T14:42:20.333Z,41.70
2022-09-15T14:47:40.072Z,45.95
2022-09-15T14:50:09.690Z,38.13
2022-09-15T14:52:41.445Z,32.92
2022-09-15T14:55:15.447Z,38.78
2022-09-15T14:57:49.756Z,41.38
2022-09-15T15:00:22.410Z,44.63
2022-09-15T15:03:00.950Z,22.13
2022-09-15T15:05:34.212Z,26.83
2022-09-15T15:08:04.612Z,25.88
2022-09-15T15:10:35.865Z,28.23
2022-09-15T15:13:07.977Z,31.25
2022-09-15T15:15:39.048Z,42.70
2022-09-15T15:18:31.594Z,24.17
2022-09-15T15:21:00.121Z,36.97
2022-09-15T15:23:28.638Z,21.25
2022-09-15T15:26:26.863Z,26.63
2022-09-15T15:28:54.409Z,33.47
2022-09-15T15:31:25.747Z,25.48
2022-09-15T15:33:55.810Z,32.83
2022-09-15T15:36:25.004Z,40.85
2022-09-15T15:38:54.518Z,29.73
2022-09-15T15:41:24.896Z,33.42
2022-09-15T15:44:02.967Z,34.00
2022-09-15T15:46:50.288Z,44.08
2022-09-15T15:49:18.647Z,26.90
2022-09-15T15:51:46.359Z,30.38
2022-09-15T15:54:14.432Z,46.08
2022-09-15T15:56:42.742Z,46.03
2022-09-15T15:59:13.084Z,21.90
2022-09-15T16:01:40.668Z,23.90
2022-09-15T16:04:12.132Z,28.05
2022-09-15T16:06:40.147Z,33.97
2022-09-15T16:09:07.951Z,42.38
2022-09-15T16:11:35.580Z,47.85
2022-09-15T16:14:03.103Z,41.85
2022-09-15T16:16:30.665Z,35.90
2022-09-15T16:18:58.211Z,38.45
2022-09-15T16:21:32.168Z,49.65
2022-09-15T16:23:59.631Z,34.03
2022-09-15T16:26:27.141Z,38.83
2022-09-15T16:28:54.715Z,29.98
2022-09-15T16:31:22.194Z,24.65
2022-09-15T16:33:49.675Z,24.73
2022-09-15T16:36:18.467Z,29.60
2022-09-15T16:38:47.301Z,24.77
2022-09-15T16:41:17.269Z,25.60
2022-09-15T16:43:45.744Z,27.17
2022-09-15T16:46:14.928Z,21.75
2022-09-15T16:48:47.003Z,21.42
2022-09-15T16:51:26.741Z,16.95
2022-09-15T16:53:57.480Z,17.88
2022-09-15T16:56:24.985Z,21.77
2022-09-15T16:58:58.767Z,25.75
2022-09-15T17:01:27.597Z,22.38
2022-09-15T17:03:55.789Z,25.95
2022-09-15T17:06:23.408Z,22.05
2022-09-15T17:08:50.896Z,29.05
2022-09-15T17:11:23.728Z,24.33
2022-09-15T17:13:51.212Z,22.80
2022-09-15T17:16:20.276Z,46.33
2022-09-15T17:18:48.982Z,48.45
2022-09-15T17:21:18.341Z,38.60
2022-09-15T17:23:47.802Z,24.75
2022-09-15T17:26:19.446Z,26.23
2022-09-15T17:28:48.803Z,30.60
2022-09-15T17:31:18.234Z,24.58
2022-09-15T17:33:46.473Z,54.30
2022-09-15T17:36:14.863Z,51.00
2022-09-15T17:38:42.642Z,43.70
2022-09-15T17:41:14.513Z,38.45
2022-09-15T17:43:41.974Z,65.18
2022-09-15T17:46:10.806Z,45.70
2022-09-15T17:48:38.990Z,48.20
2022-09-15T17:51:07.056Z,47.42
2022-09-15T17:53:34.603Z,57.55
2022-09-15T17:56:02.361Z,38.38
2022-09-15T17:58:31.359Z,48.05
2022-09-15T18:00:59.486Z,47.83
2022-09-15T18:03:31.057Z,54.33
2022-09-15T18:06:00.668Z,53.45
2022-09-15T18:08:28.751Z,44.40
2022-09-15T18:10:56.600Z,55.42
2022-09-15T18:13:26.827Z,42.40
2022-09-15T18:15:54.890Z,37.63
2022-09-15T18:18:24.834Z,67.60
2022-09-15T18:20:55.181Z,45.63
2022-09-15T18:23:24.807Z,38.13
2022-09-15T18:25:52.948Z,38.33
2022-09-15T18:28:20.693Z,39.63
2022-09-15T18:30:50.111Z,40.20
2022-09-15T18:33:19.721Z,48.28
2022-09-15T18:35:48.330Z,46.85
2022-09-15T18:38:17.384Z,36.60
2022-09-15T18:40:46.660Z,42.03
2022-09-15T18:43:14.135Z,42.80
2022-09-15T18:45:42.404Z,45.97
2022-09-15T18:48:12.780Z,40.78
2022-09-15T18:50:41.958Z,52.60
2022-09-15T18:53:09.937Z,52.90
2022-09-15T18:55:41.353Z,49.08
2022-09-15T18:58:09.161Z,30.67
2022-09-15T19:00:36.711Z,52.08
2022-09-15T19:03:06.151Z,52.10
2022-09-15T19:05:34.144Z,42.58
2022-09-15T19:08:02.757Z,47.97
2022-09-15T19:10:31.133Z,28.05
2022-09-15T19:13:00.055Z,48.08
2022-09-15T19:15:29.160Z,44.45
2022-09-15T19:17:56.637Z,45.90
2022-09-15T19:20:24.075Z,43.97
2022-09-15T19:22:51.672Z,44.92
2022-09-15T19:25:19.731Z,60.58
2022-09-15T19:27:47.841Z,60.78
2022-09-15T19:30:16.699Z,57.85
2022-09-15T19:32:44.192Z,55.38
2022-09-15T19:35:11.720Z,44.83
2022-09-15T19:37:41.374Z,35.92
2022-09-15T19:40:11.816Z,66.75
2022-09-15T19:42:39.828Z,60.25
2022-09-15T19:45:08.973Z,30.83
2022-09-15T19:47:38.120Z,40.17
2022-09-15T19:50:07.934Z,28.13
2022-09-15T19:52:35.407Z,48.80
2022-09-15T19:55:03.080Z,31.30
2022-09-15T19:57:30.591Z,37.92
2022-09-15T19:59:58.028Z,38.13
2022-09-15T20:02:25.617Z,52.17
2022-09-15T20:04:55.013Z,62.20
2022-09-15T20:07:22.532Z,42.08
2022-09-15T20:09:52.778Z,70.00
2022-09-15T20:14:53.180Z,38.15
2022-09-15T20:17:20.684Z,41.80
2022-09-15T20:19:48.281Z,55.83
2022-09-15T20:22:17.076Z,55.38
2022-09-15T20:24:44.536Z,59.17
2022-09-15T20:27:11.996Z,51.20
2022-09-15T20:29:40.152Z,31.00
2022-09-15T20:32:07.824Z,56.67
2022-09-15T20:34:35.293Z,25.70
2022-09-15T20:37:02.740Z,36.70
2022-09-15T20:39:31.551Z,43.83
2022-09-15T20:41:59.056Z,31.20
2022-09-15T20:44:26.965Z,30.25
2022-09-15T20:46:54.816Z,51.10
2022-09-15T20:49:22.320Z,36.90
2022-09-15T20:51:51.523Z,44.55
2022-09-15T20:54:19.013Z,30.35
2022-09-15T20:56:47.868Z,30.35
2022-09-15T20:59:15.666Z,60.50
2022-09-15T21:01:43.410Z,70.55
2022-09-15T21:04:11.708Z,75.13
2022-09-15T21:06:39.814Z,66.95
2022-09-15T21:09:07.463Z,65.97
2022-09-15T21:11:35.076Z,52.42
2022-09-15T21:14:04.324Z,46.90
2022-09-15T21:16:33.670Z,41.78
2022-09-15T21:19:01.444Z,42.10
2022-09-15T21:21:30.965Z,45.20
2022-09-15T21:24:01.103Z,46.50
2022-09-15T21:26:30.266Z,67.32
2022-09-15T21:28:58.158Z,41.03
2022-09-15T21:31:29.212Z,41.80
2022-09-15T21:33:57.795Z,45.15
2022-09-15T21:36:27.483Z,43.00
2022-09-15T21:38:57.100Z,49.50
2022-09-15T21:41:26.114Z,26.48
2022-09-15T21:43:55.256Z,43.28
2022-09-15T21:46:24.911Z,37.63
2022-09-15T21:48:54.228Z,69.25
2022-09-15T21:51:24.925Z,45.60
2022-09-15T21:53:53.578Z,76.47
2022-09-15T21:56:21.834Z,80.97
2022-09-15T21:58:49.928Z,73.10
2022-09-15T22:01:19.907Z,54.38
2022-09-15T22:03:50.575Z,69.07
2022-09-15T22:06:21.404Z,60.45
2022-09-15T22:08:48.928Z,45.17
2022-09-15T22:11:16.453Z,51.42
2022-09-15T22:13:44.793Z,71.97
2022-09-15T22:16:14.481Z,59.28
2022-09-15T22:18:42.579Z,46.05
2022-09-15T22:21:12.663Z,52.45
2022-09-15T22:23:41.983Z,49.22
2022-09-15T22:26:11.904Z,46.42
2022-09-15T22:28:39.915Z,57.45
2022-09-15T22:31:09.963Z,34.83
2022-09-15T22:33:38.522Z,69.93
2022-09-15T22:36:06.876Z,30.08
2022-09-15T22:38:34.429Z,68.28
2022-09-15T22:41:06.658Z,64.40
2022-09-15T22:43:34.206Z,71.43
2022-09-15T22:46:01.905Z,54.92
2022-09-15T22:48:29.591Z,56.50
2022-09-15T22:50:57.186Z,59.13
2022-09-15T22:53:25.309Z,46.35
2022-09-15T22:55:54.163Z,62.47
2022-09-15T22:58:23.018Z,63.13
2022-09-15T23:00:50.551Z,46.20
2022-09-15T23:03:18.057Z,46.35
2022-09-15T23:05:45.552Z,80.95
2022-09-15T23:08:13.430Z,60.72
2022-09-15T23:10:40.903Z,34.58
2022-09-15T23:13:08.511Z,72.70
2022-09-15T23:15:37.672Z,54.95
2022-09-15T23:18:05.149Z,48.85
2022-09-15T23:20:32.741Z,65.85
2022-09-15T23:23:00.551Z,80.20
2022-09-15T23:25:28.028Z,63.53
2022-09-15T23:27:55.510Z,62.00
2022-09-15T23:30:22.980Z,61.38
2022-09-15T23:32:51.817Z,100.78
2022-09-15T23:35:19.295Z,64.90
2022-09-15T23:37:46.795Z,61.35
2022-09-15T23:40:14.678Z,63.45
2022-09-15T23:42:42.175Z,68.35
2022-09-15T23:45:10.412Z,74.82
2022-09-15T23:47:37.884Z,59.50
2022-09-15T23:50:07.528Z,55.13
2022-09-15T23:52:35.027Z,50.65
2022-09-15T23:55:02.529Z,72.97
2022-09-15T23:57:30.007Z,64.88
2022-09-15T23:59:57.493Z,62.25
